sensor_id;sensor_type;location;lat;lon;timestamp;pressure;altitude;pressure_sealevel;temperature;humidity
56272;BME280;42177;48.914;18.160;2023-04-26T00:02:57;980.2;;;10.4;70.3
56272;BME280;42177;48.914;18.160;2023-04-26T00:07:56;980.3;;;10.7;70
56272;BME280;42177;48.914;18.160;2023-04-26T00:12:56;980.3;;;10.7;70
56272;BME280;42177;48.914;18.160;2023-04-26T00:17:56;980.5;;;10.8;71
56272;BME280;42177;48.914;18.160;2023-04-26T00:22:56;980.5;;;10.8;71
56272;BME280;42177;48.914;18.160;2023-04-26T00:27:56;980.5;;;10.7;73.2
56272;BME280;42177;48.914;18.160;2023-04-26T00:32:56;980.5;;;10.7;73.2
56272;BME280;42177;48.914;18.160;2023-04-26T00:37:56;980.6;;;10.7;72.7
56272;BME280;42177;48.914;18.160;2023-04-26T00:42:56;980.6;;;10.7;72.7
56272;BME280;42177;48.914;18.160;2023-04-26T00:47:57;980.7;;;10.8;72.4
56272;BME280;42177;48.914;18.160;2023-04-26T00:52:57;980.7;;;10.8;72.4
56272;BME280;42177;48.914;18.160;2023-04-26T00:57:56;980.7;;;10.6;70.8
56272;BME280;42177;48.914;18.160;2023-04-26T01:02:56;980.7;;;10.6;70.8
56272;BME280;42177;48.914;18.160;2023-04-26T01:07:56;980.7;;;10.3;69.5
56272;BME280;42177;48.914;18.160;2023-04-26T01:12:56;980.7;;;10.3;69.5
56272;BME280;42177;48.914;18.160;2023-04-26T01:17:56;980.6;;;9.9;69.4
56272;BME280;42177;48.914;18.160;2023-04-26T01:22:56;980.6;;;9.9;69.4
56272;BME280;42177;48.914;18.160;2023-04-26T01:27:56;980.7;;;9.6;72.2
56272;BME280;42177;48.914;18.160;2023-04-26T01:32:56;980.7;;;9.6;72.2
56272;BME280;42177;48.914;18.160;2023-04-26T01:37:56;980.9;;;9.7;72.4
56272;BME280;42177;48.914;18.160;2023-04-26T01:42:56;980.9;;;9.7;72.4
56272;BME280;42177;48.914;18.160;2023-04-26T01:47:56;981;;;9.5;72.4
56272;BME280;42177;48.914;18.160;2023-04-26T01:52:56;981;;;9.5;72.4
56272;BME280;42177;48.914;18.160;2023-04-26T01:57:56;981;;;9.5;73.3
56272;BME280;42177;48.914;18.160;2023-04-26T02:02:56;981;;;9.5;73.3
56272;BME280;42177;48.914;18.160;2023-04-26T02:07:56;981.1;;;9.2;72.1
56272;BME280;42177;48.914;18.160;2023-04-26T02:12:56;981.1;;;9.2;72.1
56272;BME280;42177;48.914;18.160;2023-04-26T02:17:56;981.2;;;9;73.7
56272;BME280;42177;48.914;18.160;2023-04-26T02:22:56;981.2;;;9;73.7
56272;BME280;42177;48.914;18.160;2023-04-26T02:27:56;981.2;;;8.7;72.3
56272;BME280;42177;48.914;18.160;2023-04-26T02:32:56;981.2;;;8.7;72.3
56272;BME280;42177;48.914;18.160;2023-04-26T02:37:56;981.2;;;8.9;73.9
56272;BME280;42177;48.914;18.160;2023-04-26T02:42:56;981.2;;;8.9;73.9
56272;BME280;42177;48.914;18.160;2023-04-26T02:47:56;981.2;;;8.7;73
56272;BME280;42177;48.914;18.160;2023-04-26T02:52:56;981.2;;;8.7;73
56272;BME280;42177;48.914;18.160;2023-04-26T02:57:56;981.2;;;8.7;72.5
56272;BME280;42177;48.914;18.160;2023-04-26T03:02:56;981.2;;;8.7;72.5
56272;BME280;42177;48.914;18.160;2023-04-26T03:07:56;981.2;;;8.3;72.2
56272;BME280;42177;48.914;18.160;2023-04-26T03:12:56;981.2;;;8.3;72.2
56272;BME280;42177;48.914;18.160;2023-04-26T03:17:56;981.3;;;8.4;70
56272;BME280;42177;48.914;18.160;2023-04-26T03:22:56;981.3;;;8.4;70
56272;BME280;42177;48.914;18.160;2023-04-26T03:27:56;981.3;;;7.8;71.8
56272;BME280;42177;48.914;18.160;2023-04-26T03:32:56;981.3;;;7.8;71.8
56272;BME280;42177;48.914;18.160;2023-04-26T03:37:56;981.4;;;7.9;69.1
56272;BME280;42177;48.914;18.160;2023-04-26T03:42:56;981.4;;;7.9;69.1
56272;BME280;42177;48.914;18.160;2023-04-26T03:47:56;981.6;;;7.9;67.9
56272;BME280;42177;48.914;18.160;2023-04-26T03:52:56;981.6;;;7.9;67.9
56272;BME280;42177;48.914;18.160;2023-04-26T03:57:56;981.6;;;8;68.8
56272;BME280;42177;48.914;18.160;2023-04-26T04:02:56;981.6;;;8;68.8
56272;BME280;42177;48.914;18.160;2023-04-26T04:07:56;981.8;;;8.2;68
56272;BME280;42177;48.914;18.160;2023-04-26T04:12:56;981.8;;;8.2;68
56272;BME280;42177;48.914;18.160;2023-04-26T04:17:56;981.8;;;7.7;69.7
56272;BME280;42177;48.914;18.160;2023-04-26T04:22:56;981.8;;;7.7;69.7
56272;BME280;42177;48.914;18.160;2023-04-26T04:27:56;981.9;;;8.1;69.6
56272;BME280;42177;48.914;18.160;2023-04-26T04:32:56;981.9;;;8.1;69.6
56272;BME280;42177;48.914;18.160;2023-04-26T04:37:56;982;;;8.1;69.8
56272;BME280;42177;48.914;18.160;2023-04-26T04:42:56;982;;;8.1;69.8
56272;BME280;42177;48.914;18.160;2023-04-26T04:47:56;982.2;;;8.4;69.1
56272;BME280;42177;48.914;18.160;2023-04-26T04:52:56;982.2;;;8.4;69.1
56272;BME280;42177;48.914;18.160;2023-04-26T04:57:56;982.3;;;8.5;69.2
56272;BME280;42177;48.914;18.160;2023-04-26T05:02:56;982.3;;;8.5;69.2
56272;BME280;42177;48.914;18.160;2023-04-26T05:07:56;982.3;;;8.4;71.3
56272;BME280;42177;48.914;18.160;2023-04-26T05:12:56;982.3;;;8.4;71.3
56272;BME280;42177;48.914;18.160;2023-04-26T05:17:56;982.4;;;9;71.5
56272;BME280;42177;48.914;18.160;2023-04-26T05:22:56;982.4;;;9;71.5
56272;BME280;42177;48.914;18.160;2023-04-26T05:27:56;982.4;;;9.5;70.6
56272;BME280;42177;48.914;18.160;2023-04-26T05:32:56;982.4;;;9.5;70.6
56272;BME280;42177;48.914;18.160;2023-04-26T05:37:56;982.4;;;9.5;69.5
56272;BME280;42177;48.914;18.160;2023-04-26T05:42:56;982.4;;;9.5;69.5
56272;BME280;42177;48.914;18.160;2023-04-26T05:47:56;982.5;;;9.6;69.6
56272;BME280;42177;48.914;18.160;2023-04-26T05:52:56;982.5;;;9.6;69.6
56272;BME280;42177;48.914;18.160;2023-04-26T05:57:56;982.5;;;10;66.3
56272;BME280;42177;48.914;18.160;2023-04-26T06:02:56;982.5;;;10;66.3
56272;BME280;42177;48.914;18.160;2023-04-26T06:07:56;982.7;;;10;64.6
56272;BME280;42177;48.914;18.160;2023-04-26T06:12:56;982.7;;;10;64.6
56272;BME280;42177;48.914;18.160;2023-04-26T06:17:56;982.7;;;10.2;61.6
56272;BME280;42177;48.914;18.160;2023-04-26T06:22:56;982.7;;;10.2;61.6
56272;BME280;42177;48.914;18.160;2023-04-26T06:27:56;982.7;;;9.8;61.9
56272;BME280;42177;48.914;18.160;2023-04-26T06:32:56;982.7;;;9.8;61.9
56272;BME280;42177;48.914;18.160;2023-04-26T06:37:56;982.7;;;10;59.9
56272;BME280;42177;48.914;18.160;2023-04-26T06:42:56;982.7;;;10;59.9
56272;BME280;42177;48.914;18.160;2023-04-26T06:47:56;982.6;;;10;57.1
56272;BME280;42177;48.914;18.160;2023-04-26T06:52:56;982.6;;;10;57.1
56272;BME280;42177;48.914;18.160;2023-04-26T06:57:56;982.8;;;10.2;52.3
56272;BME280;42177;48.914;18.160;2023-04-26T07:02:56;982.8;;;10.2;52.3
56272;BME280;42177;48.914;18.160;2023-04-26T07:07:56;982.9;;;10.6;50.8
56272;BME280;42177;48.914;18.160;2023-04-26T07:12:56;982.9;;;10.6;50.8
56272;BME280;42177;48.914;18.160;2023-04-26T07:17:56;982.9;;;10.5;54
56272;BME280;42177;48.914;18.160;2023-04-26T07:22:56;982.9;;;10.5;54
56272;BME280;42177;48.914;18.160;2023-04-26T07:27:56;982.9;;;11.1;52.2
56272;BME280;42177;48.914;18.160;2023-04-26T07:32:56;982.9;;;11.1;52.2
56272;BME280;42177;48.914;18.160;2023-04-26T07:37:56;982.9;;;11.6;48.7
56272;BME280;42177;48.914;18.160;2023-04-26T07:42:56;982.9;;;11.6;48.7
56272;BME280;42177;48.914;18.160;2023-04-26T07:47:56;982.9;;;11.9;47.4
56272;BME280;42177;48.914;18.160;2023-04-26T07:52:56;982.9;;;11.9;47.4
56272;BME280;42177;48.914;18.160;2023-04-26T07:57:56;982.9;;;11.7;47.6
56272;BME280;42177;48.914;18.160;2023-04-26T08:02:56;982.9;;;11.7;47.6
56272;BME280;42177;48.914;18.160;2023-04-26T08:07:56;983;;;11.9;48.1
56272;BME280;42177;48.914;18.160;2023-04-26T08:12:56;983;;;11.9;48.1
56272;BME280;42177;48.914;18.160;2023-04-26T08:17:56;983;;;13.5;47.9
56272;BME280;42177;48.914;18.160;2023-04-26T08:22:57;983;;;13.5;47.9
56272;BME280;42177;48.914;18.160;2023-04-26T08:27:56;983;;;13.8;44.8
56272;BME280;42177;48.914;18.160;2023-04-26T08:32:56;983;;;13.8;44.8
56272;BME280;42177;48.914;18.160;2023-04-26T08:37:56;983;;;12.5;45.3
56272;BME280;42177;48.914;18.160;2023-04-26T08:42:56;983;;;12.5;45.3
56272;BME280;42177;48.914;18.160;2023-04-26T08:47:57;983;;;13;45.2
56272;BME280;42177;48.914;18.160;2023-04-26T08:52:56;983;;;13;45.2
56272;BME280;42177;48.914;18.160;2023-04-26T08:57:56;983.1;;;11.5;45.7
56272;BME280;42177;48.914;18.160;2023-04-26T09:02:56;983.1;;;11.5;45.7
56272;BME280;42177;48.914;18.160;2023-04-26T09:07:58;983.2;;;11.4;47.9
56272;BME280;42177;48.914;18.160;2023-04-26T09:12:56;983.2;;;11.4;47.9
56272;BME280;42177;48.914;18.160;2023-04-26T09:17:57;983.5;;;11.5;49.1
56272;BME280;42177;48.914;18.160;2023-04-26T09:23:02;983.5;;;11.5;49.1
56272;BME280;42177;48.914;18.160;2023-04-26T09:27:57;983.4;;;11.9;48.4
56272;BME280;42177;48.914;18.160;2023-04-26T09:32:57;983.4;;;11.9;48.4
56272;BME280;42177;48.914;18.160;2023-04-26T09:37:57;983.3;;;12.8;47.3
56272;BME280;42177;48.914;18.160;2023-04-26T09:42:57;983.3;;;12.8;47.3
56272;BME280;42177;48.914;18.160;2023-04-26T09:48:12;983.3;;;13.1;44.6
56272;BME280;42177;48.914;18.160;2023-04-26T09:52:56;983.3;;;13.1;44.6
56272;BME280;42177;48.914;18.160;2023-04-26T09:57:57;983.2;;;13.7;44
56272;BME280;42177;48.914;18.160;2023-04-26T10:02:56;983.2;;;13.7;44
56272;BME280;42177;48.914;18.160;2023-04-26T10:07:56;983.2;;;13.2;44.1
56272;BME280;42177;48.914;18.160;2023-04-26T10:12:56;983.2;;;13.2;44.1
56272;BME280;42177;48.914;18.160;2023-04-26T10:17:56;983.2;;;14.4;38.5
56272;BME280;42177;48.914;18.160;2023-04-26T10:22:57;983.2;;;14.4;38.5
56272;BME280;42177;48.914;18.160;2023-04-26T10:27:56;983;;;14.4;38.3
56272;BME280;42177;48.914;18.160;2023-04-26T10:38:07;983;;;13;35.6
56272;BME280;42177;48.914;18.160;2023-04-26T10:43:26;983;;;13;35.6
56272;BME280;42177;48.914;18.160;2023-04-26T10:48:12;983;;;13.9;40.1
56272;BME280;42177;48.914;18.160;2023-04-26T10:53:04;983;;;13.9;40.1
56272;BME280;42177;48.914;18.160;2023-04-26T10:57:56;983;;;13.1;35
56272;BME280;42177;48.914;18.160;2023-04-26T11:02:58;983;;;13.1;35
56272;BME280;42177;48.914;18.160;2023-04-26T11:08:02;982.9;;;13;35.3
56272;BME280;42177;48.914;18.160;2023-04-26T11:12:58;982.9;;;13;35.3
56272;BME280;42177;48.914;18.160;2023-04-26T11:17:56;983;;;13.1;34.1
56272;BME280;42177;48.914;18.160;2023-04-26T11:22:56;983;;;13.1;34.1
56272;BME280;42177;48.914;18.160;2023-04-26T11:27:58;983;;;15;34.6
56272;BME280;42177;48.914;18.160;2023-04-26T11:32:57;983;;;15;34.6
56272;BME280;42177;48.914;18.160;2023-04-26T11:37:57;983;;;14.4;34.6
56272;BME280;42177;48.914;18.160;2023-04-26T11:42:58;983;;;14.4;34.6
56272;BME280;42177;48.914;18.160;2023-04-26T11:47:56;983.2;;;12.9;37.1
56272;BME280;42177;48.914;18.160;2023-04-26T11:52:58;983.2;;;12.9;37.1
56272;BME280;42177;48.914;18.160;2023-04-26T11:57:56;983.2;;;12.6;37.1
56272;BME280;42177;48.914;18.160;2023-04-26T12:03:03;983.2;;;12.6;37.1
56272;BME280;42177;48.914;18.160;2023-04-26T12:07:57;983.2;;;13.6;37.4
56272;BME280;42177;48.914;18.160;2023-04-26T12:12:57;983.2;;;13.6;37.4
56272;BME280;42177;48.914;18.160;2023-04-26T12:17:58;983.2;;;13.4;37.5
56272;BME280;42177;48.914;18.160;2023-04-26T12:22:58;983.2;;;13.4;37.5
56272;BME280;42177;48.914;18.160;2023-04-26T12:27:56;983.4;;;12.2;39.5
56272;BME280;42177;48.914;18.160;2023-04-26T12:32:56;983.4;;;12.2;39.5
56272;BME280;42177;48.914;18.160;2023-04-26T12:37:56;983.4;;;12.1;37.9
56272;BME280;42177;48.914;18.160;2023-04-26T12:42:57;983.4;;;12.1;37.9
56272;BME280;42177;48.914;18.160;2023-04-26T12:47:56;983.4;;;13.4;37.5
56272;BME280;42177;48.914;18.160;2023-04-26T12:52:56;983.4;;;13.4;37.5
56272;BME280;42177;48.914;18.160;2023-04-26T12:57:56;983.4;;;13;37.2
56272;BME280;42177;48.914;18.160;2023-04-26T13:02:56;983.4;;;13;37.2
56272;BME280;42177;48.914;18.160;2023-04-26T13:07:56;983.5;;;12;40.9
56272;BME280;42177;48.914;18.160;2023-04-26T13:12:57;983.5;;;12;40.9
56272;BME280;42177;48.914;18.160;2023-04-26T13:17:56;983.6;;;11.5;42.4
56272;BME280;42177;48.914;18.160;2023-04-26T13:22:56;983.6;;;11.5;42.4
56272;BME280;42177;48.914;18.160;2023-04-26T13:27:56;983.7;;;11.9;42.2
56272;BME280;42177;48.914;18.160;2023-04-26T13:32:56;983.7;;;11.9;42.2
56272;BME280;42177;48.914;18.160;2023-04-26T13:37:56;983.6;;;12.6;39.8
56272;BME280;42177;48.914;18.160;2023-04-26T13:42:56;983.6;;;12.6;39.8
56272;BME280;42177;48.914;18.160;2023-04-26T13:47:56;983.6;;;12.5;39.2
56272;BME280;42177;48.914;18.160;2023-04-26T13:52:57;983.6;;;12.5;39.2
56272;BME280;42177;48.914;18.160;2023-04-26T13:57:57;983.5;;;13.2;38.4
56272;BME280;42177;48.914;18.160;2023-04-26T14:02:56;983.5;;;13.2;38.4
56272;BME280;42177;48.914;18.160;2023-04-26T14:07:56;983.5;;;13.2;37.5
56272;BME280;42177;48.914;18.160;2023-04-26T14:12:57;983.5;;;13.2;37.5
56272;BME280;42177;48.914;18.160;2023-04-26T14:17:56;983.8;;;12;42.4
56272;BME280;42177;48.914;18.160;2023-04-26T14:22:56;983.8;;;12;42.4
56272;BME280;42177;48.914;18.160;2023-04-26T14:27:56;983.8;;;11.5;42.8
56272;BME280;42177;48.914;18.160;2023-04-26T14:32:56;983.8;;;11.5;42.8
56272;BME280;42177;48.914;18.160;2023-04-26T14:37:56;983.8;;;12.1;42.5
56272;BME280;42177;48.914;18.160;2023-04-26T14:42:56;983.8;;;12.1;42.5
56272;BME280;42177;48.914;18.160;2023-04-26T14:47:56;983.8;;;12.6;43.3
56272;BME280;42177;48.914;18.160;2023-04-26T14:52:56;983.8;;;12.6;43.3
56272;BME280;42177;48.914;18.160;2023-04-26T14:57:56;983.8;;;13.1;39.2
56272;BME280;42177;48.914;18.160;2023-04-26T15:02:56;983.8;;;13.1;39.2
56272;BME280;42177;48.914;18.160;2023-04-26T15:07:56;983.8;;;13.8;38
56272;BME280;42177;48.914;18.160;2023-04-26T15:12:56;983.8;;;13.8;38
56272;BME280;42177;48.914;18.160;2023-04-26T15:17:56;983.9;;;14.8;35.6
56272;BME280;42177;48.914;18.160;2023-04-26T15:22:56;983.9;;;14.8;35.6
56272;BME280;42177;48.914;18.160;2023-04-26T15:27:56;983.8;;;14.8;35.6
56272;BME280;42177;48.914;18.160;2023-04-26T15:32:57;983.8;;;14.8;35.6
56272;BME280;42177;48.914;18.160;2023-04-26T15:37:56;983.8;;;13.9;34.7
56272;BME280;42177;48.914;18.160;2023-04-26T15:42:56;983.8;;;13.9;34.7
56272;BME280;42177;48.914;18.160;2023-04-26T15:47:56;983.9;;;12.8;37
56272;BME280;42177;48.914;18.160;2023-04-26T15:52:57;983.9;;;12.8;37
56272;BME280;42177;48.914;18.160;2023-04-26T15:57:56;984;;;12.4;40
56272;BME280;42177;48.914;18.160;2023-04-26T16:02:56;984;;;12.4;40
56272;BME280;42177;48.914;18.160;2023-04-26T16:07:56;984;;;12.3;40.1
56272;BME280;42177;48.914;18.160;2023-04-26T16:12:56;984;;;12.3;40.1
56272;BME280;42177;48.914;18.160;2023-04-26T16:17:56;984;;;12.1;39.9
56272;BME280;42177;48.914;18.160;2023-04-26T16:22:56;984;;;12.1;39.9
56272;BME280;42177;48.914;18.160;2023-04-26T16:27:56;984.2;;;11.6;41.6
56272;BME280;42177;48.914;18.160;2023-04-26T16:32:57;984.2;;;11.6;41.6
56272;BME280;42177;48.914;18.160;2023-04-26T16:37:56;984.2;;;11.6;41.9
56272;BME280;42177;48.914;18.160;2023-04-26T16:42:56;984.2;;;11.6;41.9
56272;BME280;42177;48.914;18.160;2023-04-26T16:47:56;984.2;;;11.6;41.5
56272;BME280;42177;48.914;18.160;2023-04-26T16:52:57;984.2;;;11.6;41.5
56272;BME280;42177;48.914;18.160;2023-04-26T16:57:56;984.2;;;11.8;41.6
56272;BME280;42177;48.914;18.160;2023-04-26T17:02:56;984.2;;;11.8;41.6
56272;BME280;42177;48.914;18.160;2023-04-26T17:07:56;984.3;;;11.8;41.9
56272;BME280;42177;48.914;18.160;2023-04-26T17:12:57;984.3;;;11.8;41.9
56272;BME280;42177;48.914;18.160;2023-04-26T17:17:56;984.5;;;12;42.2
56272;BME280;42177;48.914;18.160;2023-04-26T17:22:56;984.5;;;12;42.2
56272;BME280;42177;48.914;18.160;2023-04-26T17:27:57;984.5;;;11.6;43.7
56272;BME280;42177;48.914;18.160;2023-04-26T17:32:57;984.5;;;11.6;43.7
56272;BME280;42177;48.914;18.160;2023-04-26T17:37:56;984.6;;;11.3;45.4
56272;BME280;42177;48.914;18.160;2023-04-26T17:42:56;984.6;;;11.3;45.4
56272;BME280;42177;48.914;18.160;2023-04-26T17:47:56;984.7;;;11.2;46.2
56272;BME280;42177;48.914;18.160;2023-04-26T17:52:57;984.7;;;11.2;46.2
56272;BME280;42177;48.914;18.160;2023-04-26T17:57:56;984.8;;;11.3;47.1
56272;BME280;42177;48.914;18.160;2023-04-26T18:02:56;984.8;;;11.3;47.1
56272;BME280;42177;48.914;18.160;2023-04-26T18:07:57;984.9;;;11.3;47.3
56272;BME280;42177;48.914;18.160;2023-04-26T18:12:56;984.9;;;11.3;47.3
56272;BME280;42177;48.914;18.160;2023-04-26T18:17:56;985.1;;;11.5;47.9
56272;BME280;42177;48.914;18.160;2023-04-26T18:22:56;985.1;;;11.5;47.9
56272;BME280;42177;48.914;18.160;2023-04-26T18:27:57;985.2;;;11.2;48.4
56272;BME280;42177;48.914;18.160;2023-04-26T18:32:56;985.2;;;11.2;48.4
56272;BME280;42177;48.914;18.160;2023-04-26T18:37:56;985.3;;;13.5;52.6
56272;BME280;42177;48.914;18.160;2023-04-26T18:42:56;985.3;;;13.5;52.6
56272;BME280;42177;48.914;18.160;2023-04-26T18:47:57;985.3;;;12.6;45.4
56272;BME280;42177;48.914;18.160;2023-04-26T18:52:56;985.3;;;12.6;45.4
56272;BME280;42177;48.914;18.160;2023-04-26T18:57:56;985.4;;;11.4;49.2
56272;BME280;42177;48.914;18.160;2023-04-26T19:02:56;985.4;;;11.4;49.2
56272;BME280;42177;48.914;18.160;2023-04-26T19:07:57;985.5;;;11.4;50.3
56272;BME280;42177;48.914;18.160;2023-04-26T19:12:56;985.5;;;11.4;50.3
56272;BME280;42177;48.914;18.160;2023-04-26T19:17:56;985.5;;;10.9;52.1
56272;BME280;42177;48.914;18.160;2023-04-26T19:22:56;985.5;;;10.9;52.1
56272;BME280;42177;48.914;18.160;2023-04-26T19:27:57;985.6;;;11.4;52
56272;BME280;42177;48.914;18.160;2023-04-26T19:32:56;985.6;;;11.4;52
56272;BME280;42177;48.914;18.160;2023-04-26T19:37:56;985.7;;;10.8;51.7
56272;BME280;42177;48.914;18.160;2023-04-26T19:42:57;985.7;;;10.8;51.7
56272;BME280;42177;48.914;18.160;2023-04-26T19:47:56;985.7;;;10.9;53.8
56272;BME280;42177;48.914;18.160;2023-04-26T19:52:56;985.7;;;10.9;53.8
56272;BME280;42177;48.914;18.160;2023-04-26T19:57:56;985.7;;;10.4;55.4
56272;BME280;42177;48.914;18.160;2023-04-26T20:02:56;985.7;;;10.4;55.4
56272;BME280;42177;48.914;18.160;2023-04-26T20:07:57;985.9;;;10.8;56.1
56272;BME280;42177;48.914;18.160;2023-04-26T20:12:56;985.9;;;10.8;56.1
56272;BME280;42177;48.914;18.160;2023-04-26T20:17:57;985.8;;;10.5;58.6
56272;BME280;42177;48.914;18.160;2023-04-26T20:22:57;985.8;;;10.5;58.6
56272;BME280;42177;48.914;18.160;2023-04-26T20:27:57;985.8;;;10.5;59
56272;BME280;42177;48.914;18.160;2023-04-26T20:32:56;985.8;;;10.5;59
56272;BME280;42177;48.914;18.160;2023-04-26T20:37:56;986;;;10.8;57.6
56272;BME280;42177;48.914;18.160;2023-04-26T20:42:56;986;;;10.8;57.6
56272;BME280;42177;48.914;18.160;2023-04-26T20:47:57;985.9;;;10.3;59.3
56272;BME280;42177;48.914;18.160;2023-04-26T20:52:56;985.9;;;10.3;59.3
56272;BME280;42177;48.914;18.160;2023-04-26T20:57:56;985.9;;;9.9;61.2
56272;BME280;42177;48.914;18.160;2023-04-26T21:02:57;985.9;;;9.9;61.2
56272;BME280;42177;48.914;18.160;2023-04-26T21:07:57;986.1;;;9.9;62
56272;BME280;42177;48.914;18.160;2023-04-26T21:12:56;986.1;;;9.9;62
56272;BME280;42177;48.914;18.160;2023-04-26T21:17:56;986.1;;;9.7;63.6
56272;BME280;42177;48.914;18.160;2023-04-26T21:22:56;986.1;;;9.7;63.6
56272;BME280;42177;48.914;18.160;2023-04-26T21:27:57;986.2;;;9.2;65.1
56272;BME280;42177;48.914;18.160;2023-04-26T21:32:56;986.2;;;9.2;65.1
56272;BME280;42177;48.914;18.160;2023-04-26T21:37:56;986.2;;;9.1;64.8
56272;BME280;42177;48.914;18.160;2023-04-26T21:42:56;986.2;;;9.1;64.8
56272;BME280;42177;48.914;18.160;2023-04-26T21:47:57;986.3;;;8.9;65
56272;BME280;42177;48.914;18.160;2023-04-26T21:52:57;986.3;;;8.9;65
56272;BME280;42177;48.914;18.160;2023-04-26T21:57:56;986.4;;;8.9;66.4
56272;BME280;42177;48.914;18.160;2023-04-26T22:02:57;986.4;;;8.9;66.4
56272;BME280;42177;48.914;18.160;2023-04-26T22:07:56;986.5;;;8.7;65.3
56272;BME280;42177;48.914;18.160;2023-04-26T22:12:57;986.5;;;8.7;65.3
56272;BME280;42177;48.914;18.160;2023-04-26T22:17:56;986.7;;;8.6;65.4
56272;BME280;42177;48.914;18.160;2023-04-26T22:22:57;986.7;;;8.6;65.4
56272;BME280;42177;48.914;18.160;2023-04-26T22:27:57;986.7;;;8;68.4
56272;BME280;42177;48.914;18.160;2023-04-26T22:32:57;986.7;;;8;68.4
56272;BME280;42177;48.914;18.160;2023-04-26T22:37:57;986.8;;;8;68.3
56272;BME280;42177;48.914;18.160;2023-04-26T22:42:57;986.8;;;8;68.3
56272;BME280;42177;48.914;18.160;2023-04-26T22:47:57;986.7;;;7.2;70.1
56272;BME280;42177;48.914;18.160;2023-04-26T22:52:56;986.7;;;7.2;70.1
56272;BME280;42177;48.914;18.160;2023-04-26T22:57:57;986.9;;;7.4;70.9
56272;BME280;42177;48.914;18.160;2023-04-26T23:02:57;986.9;;;7.4;70.9
56272;BME280;42177;48.914;18.160;2023-04-26T23:07:57;987;;;7.4;71
56272;BME280;42177;48.914;18.160;2023-04-26T23:12:57;987;;;7.4;71
56272;BME280;42177;48.914;18.160;2023-04-26T23:17:57;987;;;7.4;70.8
56272;BME280;42177;48.914;18.160;2023-04-26T23:22:57;987;;;7.4;70.8
56272;BME280;42177;48.914;18.160;2023-04-26T23:27:56;987;;;7.3;71
56272;BME280;42177;48.914;18.160;2023-04-26T23:32:57;987;;;7.3;71
56272;BME280;42177;48.914;18.160;2023-04-26T23:37:56;987.1;;;6.7;73.3
56272;BME280;42177;48.914;18.160;2023-04-26T23:42:57;987.1;;;6.7;73.3
56272;BME280;42177;48.914;18.160;2023-04-26T23:47:57;987.2;;;7;72.7
56272;BME280;42177;48.914;18.160;2023-04-26T23:52:57;987.2;;;7;72.7
56272;BME280;42177;48.914;18.160;2023-04-26T23:57:56;987.2;;;6.8;74.1
